Time;durP1;ratioP1;P1;durP2;ratioP2;P2;SDS_P1;SDS_P2;PMS_P1;PMS_P2;Temp;Humidity;BMP_temperature;BMP_pressure;BME280_temperature;BME280_humidity;BME280_pressure;Samples;Min_cycle;Max_cycle;Signal;HPM_P1;HPM_P2
2022/07/06 00:01:46;;;;;;;10.10;9.80;;;18.40;99.90;;;;;;5083170;28;20247;-81
2022/07/06 00:04:13;;;;;;;10.07;9.77;;;18.30;99.90;;;;;;5090784;27;20221;-82
2022/07/06 00:06:41;;;;;;;10.20;9.90;;;18.20;99.90;;;;;;5100573;27;20222;-81
2022/07/06 00:09:08;;;;;;;10.15;9.85;;;18.20;99.90;;;;;;5094995;28;20261;-81
2022/07/06 00:11:36;;;;;;;10.38;10.07;;;18.10;99.90;;;;;;5085177;28;20230;-81
2022/07/06 00:14:04;;;;;;;10.38;10.07;;;18.10;99.90;;;;;;5080048;28;20238;-81
2022/07/06 00:16:31;;;;;;;10.50;10.20;;;18.10;99.90;;;;;;5079080;28;20801;-81
2022/07/06 00:19:00;;;;;;;10.30;10.00;;;18.10;99.90;;;;;;5078294;28;20329;-80
2022/07/06 00:21:28;;;;;;;10.43;10.13;;;18.10;99.90;;;;;;5076915;28;20256;-81
2022/07/06 00:23:55;;;;;;;10.15;9.85;;;18.10;99.90;;;;;;5078698;28;20305;-81
2022/07/06 00:26:23;;;;;;;10.18;9.88;;;18.10;99.90;;;;;;5078668;28;20258;-81
2022/07/06 00:28:50;;;;;;;10.30;10.00;;;18.10;99.90;;;;;;5078984;28;20452;-81
2022/07/06 00:31:18;;;;;;;10.20;9.90;;;18.00;99.90;;;;;;5079189;28;20293;-81
2022/07/06 00:33:46;;;;;;;10.10;9.80;;;17.90;99.90;;;;;;5079668;28;20234;-81
2022/07/06 00:36:15;;;;;;;10.20;9.90;;;17.90;99.90;;;;;;5079595;28;20246;-81
2022/07/06 00:38:43;;;;;;;10.18;9.88;;;17.90;99.90;;;;;;5079618;28;20230;-81
2022/07/06 00:41:10;;;;;;;10.10;9.80;;;17.90;99.90;;;;;;5079177;28;20331;-81
2022/07/06 00:43:55;;;;;;;9.90;9.60;;;17.90;99.90;;;;;;5080017;28;20312;-81
2022/07/06 00:46:28;;;;;;;10.27;9.98;;;17.80;99.90;;;;;;5079788;28;20238;-81
2022/07/06 00:48:56;;;;;;;10.05;9.75;;;17.80;99.90;;;;;;5080033;28;20261;-81
2022/07/06 00:51:30;;;;;;;10.23;9.93;;;17.80;99.90;;;;;;5080713;28;20234;-81
2022/07/06 00:54:01;;;;;;;10.02;9.73;;;17.70;99.90;;;;;;5081509;28;20237;-81
2022/07/06 00:56:32;;;;;;;9.80;9.50;;;17.70;99.90;;;;;;5081027;28;20233;-81
2022/07/06 00:59:01;;;;;;;10.30;10.00;;;17.60;99.90;;;;;;5081283;28;20241;-81
2022/07/06 01:01:28;;;;;;;10.50;10.20;;;17.70;99.90;;;;;;5079302;28;20288;-81
2022/07/06 01:03:56;;;;;;;10.18;9.88;;;17.60;99.90;;;;;;5079845;28;20226;-81
2022/07/06 01:06:27;;;;;;;10.05;9.75;;;17.60;99.90;;;;;;5079892;28;20317;-81
2022/07/06 01:08:55;;;;;;;10.30;10.00;;;17.60;99.90;;;;;;5078916;28;20230;-81
2022/07/06 01:11:22;;;;;;;10.38;10.07;;;17.60;99.90;;;;;;5077991;28;20286;-81
2022/07/06 01:13:51;;;;;;;10.20;9.90;;;17.60;99.90;;;;;;5082199;28;20272;-80
2022/07/06 01:16:19;;;;;;;10.20;9.90;;;17.60;99.90;;;;;;5081673;28;20261;-81
2022/07/06 01:18:48;;;;;;;10.07;9.77;;;17.60;99.90;;;;;;5080878;28;20333;-81
2022/07/06 01:21:17;;;;;;;10.20;9.90;;;17.50;99.90;;;;;;5081035;28;20222;-81
2022/07/06 01:23:46;;;;;;;10.10;9.80;;;17.50;99.90;;;;;;5080706;28;20238;-81
2022/07/06 01:26:15;;;;;;;9.90;9.60;;;17.50;99.90;;;;;;5081662;28;20268;-83
2022/07/06 01:28:43;;;;;;;10.20;9.90;;;17.50;99.90;;;;;;5079994;28;20354;-83
2022/07/06 01:31:20;;;;;;;10.07;9.77;;;17.40;99.90;;;;;;5080062;28;20233;-83
2022/07/06 01:33:49;;;;;;;10.30;10.00;;;17.40;99.90;;;;;;5079626;28;20288;-82
2022/07/06 01:36:18;;;;;;;9.93;9.63;;;17.40;99.90;;;;;;5078844;28;20230;-80
2022/07/06 01:38:48;;;;;;;9.93;9.63;;;17.40;99.90;;;;;;5078984;28;20317;-80
2022/07/06 01:41:15;;;;;;;9.93;9.63;;;17.40;99.90;;;;;;5079364;28;20329;-80
2022/07/06 01:43:43;;;;;;;10.23;9.93;;;17.30;99.90;;;;;;5079442;28;20230;-80
2022/07/06 01:46:11;;;;;;;10.13;9.82;;;17.30;99.90;;;;;;5079059;28;20234;-80
2022/07/06 01:48:39;;;;;;;9.73;9.43;;;17.20;99.90;;;;;;5079533;28;20258;-80
2022/07/06 01:51:07;;;;;;;9.82;9.52;;;17.20;99.90;;;;;;5078775;28;20214;-79
2022/07/06 01:53:35;;;;;;;10.00;9.70;;;17.20;99.90;;;;;;5079024;28;20233;-80
2022/07/06 01:56:03;;;;;;;10.20;9.90;;;17.20;99.90;;;;;;5079210;28;20230;-81
2022/07/06 01:58:30;;;;;;;10.10;9.80;;;17.20;99.90;;;;;;5079948;28;20708;-81
2022/07/06 02:00:58;;;;;;;10.13;9.82;;;17.20;99.90;;;;;;5079448;28;20348;-81
2022/07/06 02:03:25;;;;;;;10.00;9.70;;;17.20;99.90;;;;;;5079814;28;20236;-81
2022/07/06 02:05:53;;;;;;;10.10;9.80;;;17.20;99.90;;;;;;5078912;28;20301;-81
2022/07/06 02:08:20;;;;;;;9.85;9.55;;;17.20;99.90;;;;;;5078878;28;20321;-81
2022/07/06 02:10:49;;;;;;;9.85;9.55;;;17.20;99.90;;;;;;5079192;28;20230;-81
2022/07/06 02:13:17;;;;;;;10.15;9.85;;;17.20;99.90;;;;;;5078941;28;20240;-80
2022/07/06 02:15:44;;;;;;;10.00;9.70;;;17.20;99.90;;;;;;5078722;28;20238;-81
2022/07/06 02:18:12;;;;;;;9.70;9.40;;;17.20;99.90;;;;;;5078921;28;20316;-81
2022/07/06 02:20:40;;;;;;;9.80;9.50;;;17.20;99.90;;;;;;5079050;28;20229;-81
2022/07/06 02:23:07;;;;;;;9.68;9.38;;;17.30;99.90;;;;;;5081673;28;20238;-81
2022/07/06 02:25:35;;;;;;;9.82;9.52;;;17.30;99.90;;;;;;5086762;28;20325;-81
2022/07/06 02:28:04;;;;;;;10.25;9.95;;;17.30;99.90;;;;;;5080983;28;20705;-81
2022/07/06 02:30:31;;;;;;;9.98;9.68;;;17.20;99.90;;;;;;5080126;28;20222;-81
2022/07/06 02:32:59;;;;;;;9.57;9.27;;;17.10;99.90;;;;;;5079065;28;20244;-81
2022/07/06 02:35:26;;;;;;;9.70;9.40;;;17.00;99.90;;;;;;5079286;28;20246;-81
2022/07/06 02:37:54;;;;;;;9.90;9.60;;;17.00;99.90;;;;;;5079224;28;20282;-81
2022/07/06 02:40:21;;;;;;;9.85;9.55;;;17.00;99.90;;;;;;5078450;28;20220;-81
2022/07/06 02:42:49;;;;;;;9.68;9.38;;;17.10;99.90;;;;;;5078598;28;20344;-80
2022/07/06 02:45:18;;;;;;;10.00;9.70;;;17.00;99.90;;;;;;5084523;28;20245;-81
2022/07/06 02:47:45;;;;;;;9.63;9.32;;;17.00;99.90;;;;;;5083495;28;20294;-80
2022/07/06 02:50:13;;;;;;;9.88;9.57;;;17.10;99.90;;;;;;5081591;28;20317;-81
2022/07/06 02:52:40;;;;;;;10.73;10.43;;;17.10;99.90;;;;;;5078353;28;20230;-81
2022/07/06 02:55:09;;;;;;;10.60;10.30;;;17.10;99.90;;;;;;5079031;28;20316;-81
2022/07/06 02:57:36;;;;;;;10.77;10.48;;;17.00;99.90;;;;;;5078257;28;20230;-81
2022/07/06 03:00:07;;;;;;;10.45;10.15;;;17.00;99.90;;;;;;5078019;28;20230;-80
2022/07/06 03:02:36;;;;;;;10.55;10.25;;;17.00;99.90;;;;;;5079243;28;20308;-80
2022/07/06 03:05:04;;;;;;;10.65;10.35;;;17.00;99.90;;;;;;5079327;28;20240;-81
2022/07/06 03:07:31;;;;;;;10.45;10.15;;;17.00;99.90;;;;;;5080205;28;20326;-81
2022/07/06 03:09:59;;;;;;;10.65;10.35;;;16.90;99.90;;;;;;5079458;28;20230;-81
2022/07/06 03:12:26;;;;;;;10.90;10.60;;;16.80;99.90;;;;;;5078672;28;20332;-81
2022/07/06 03:14:54;;;;;;;10.77;10.48;;;16.80;99.90;;;;;;5078659;28;20240;-81
2022/07/06 03:17:21;;;;;;;10.77;10.48;;;16.80;99.90;;;;;;5083208;28;20214;-80
2022/07/06 03:19:50;;;;;;;10.60;10.30;;;16.80;99.90;;;;;;5090629;28;20234;-80
2022/07/06 03:22:18;;;;;;;10.65;10.35;;;16.80;99.90;;;;;;5073891;28;20238;-81
2022/07/06 03:24:45;;;;;;;10.70;10.40;;;16.70;99.90;;;;;;5075742;28;20238;-81
2022/07/06 03:27:13;;;;;;;10.00;9.70;;;16.60;99.90;;;;;;5077536;28;20720;-80
2022/07/06 03:29:40;;;;;;;10.38;10.07;;;16.60;99.90;;;;;;5077365;28;20229;-81
2022/07/06 03:32:09;;;;;;;10.70;10.40;;;16.60;99.90;;;;;;5077679;28;20238;-81
2022/07/06 03:34:36;;;;;;;10.55;10.25;;;16.60;99.90;;;;;;5079584;28;20234;-81
2022/07/06 03:37:05;;;;;;;10.30;10.00;;;16.60;99.90;;;;;;5076798;28;20230;-81
2022/07/06 03:39:33;;;;;;;10.20;9.90;;;16.70;99.90;;;;;;5076723;28;20250;-80
2022/07/06 03:42:01;;;;;;;9.98;9.68;;;16.70;99.90;;;;;;5076890;28;20249;-81
2022/07/06 03:44:28;;;;;;;10.10;9.80;;;16.60;99.90;;;;;;5076984;28;20240;-81
2022/07/06 03:46:56;;;;;;;10.10;9.80;;;16.60;99.90;;;;;;5076965;28;20234;-82
2022/07/06 03:49:26;;;;;;;10.10;9.80;;;16.70;99.90;;;;;;5077795;28;20226;-81
2022/07/06 03:51:54;;;;;;;10.48;10.18;;;16.70;99.90;;;;;;5076674;28;20544;-80
2022/07/06 03:54:23;;;;;;;10.35;10.05;;;16.80;99.90;;;;;;5076820;28;20255;-81
2022/07/06 03:56:50;;;;;;;10.50;10.20;;;16.80;99.90;;;;;;5077273;28;20226;-81
2022/07/06 03:59:18;;;;;;;10.68;10.38;;;16.80;99.90;;;;;;5076526;28;20246;-81
2022/07/06 04:01:45;;;;;;;10.60;10.30;;;16.70;99.90;;;;;;5079218;28;20238;-82
2022/07/06 04:04:13;;;;;;;10.35;10.05;;;16.70;99.90;;;;;;5079709;28;20238;-81
2022/07/06 04:06:40;;;;;;;10.35;10.05;;;16.60;99.90;;;;;;5076869;28;20268;-81
2022/07/06 04:09:09;;;;;;;10.43;10.13;;;16.60;99.90;;;;;;5077508;28;20226;-81
2022/07/06 04:11:38;;;;;;;10.50;10.20;;;16.60;99.90;;;;;;5079426;28;20329;-81
2022/07/06 04:14:05;;;;;;;10.38;10.07;;;16.60;99.90;;;;;;5085121;28;20516;-81
2022/07/06 04:16:33;;;;;;;10.63;10.32;;;16.60;99.90;;;;;;5079028;28;20330;-81
2022/07/06 04:19:00;;;;;;;10.57;10.27;;;16.70;99.90;;;;;;5081105;28;20261;-81
2022/07/06 04:21:28;;;;;;;10.40;10.10;;;16.80;99.90;;;;;;5076304;28;20237;-82
2022/07/06 04:23:55;;;;;;;10.60;10.30;;;16.90;99.90;;;;;;5077609;28;20318;-81
2022/07/06 04:26:23;;;;;;;10.90;10.60;;;16.90;99.90;;;;;;5078735;28;20626;-81
2022/07/06 04:28:52;;;;;;;10.60;10.30;;;17.00;99.90;;;;;;5077568;28;20309;-81
2022/07/06 04:31:19;;;;;;;10.48;10.18;;;17.00;99.90;;;;;;5077604;28;20262;-81
2022/07/06 04:33:47;;;;;;;10.52;10.23;;;17.00;99.90;;;;;;5076937;28;20290;-81
2022/07/06 04:36:14;;;;;;;10.40;10.10;;;17.10;99.90;;;;;;5077056;28;20300;-81
2022/07/06 04:38:42;;;;;;;10.65;10.35;;;17.20;99.90;;;;;;5077683;28;20262;-81
2022/07/06 04:41:09;;;;;;;10.40;10.10;;;17.20;99.90;;;;;;5076787;28;20265;-82
2022/07/06 04:43:37;;;;;;;10.50;10.20;;;17.30;99.90;;;;;;5078579;28;20335;-81
2022/07/06 04:46:06;;;;;;;10.40;10.10;;;17.30;99.90;;;;;;5078461;28;20229;-81
2022/07/06 04:48:36;;;;;;;10.63;10.32;;;17.40;99.90;;;;;;5081384;28;20236;-81
2022/07/06 04:51:03;;;;;;;10.70;10.40;;;17.30;99.90;;;;;;5081331;28;20240;-82
2022/07/06 04:53:32;;;;;;;10.77;10.48;;;17.20;99.90;;;;;;5081931;28;20321;-81
2022/07/06 04:56:00;;;;;;;10.80;10.50;;;17.20;99.90;;;;;;5082395;28;20257;-81
2022/07/06 04:58:27;;;;;;;10.60;10.30;;;17.20;99.90;;;;;;5082111;28;20253;-81
2022/07/06 05:00:55;;;;;;;10.98;10.68;;;17.20;99.90;;;;;;5081305;28;20321;-81
2022/07/06 05:03:24;;;;;;;10.98;10.68;;;17.20;99.90;;;;;;5081819;28;20241;-81
2022/07/06 05:05:51;;;;;;;10.80;10.50;;;17.20;99.90;;;;;;5081763;28;20261;-81
2022/07/06 05:08:19;;;;;;;10.80;10.50;;;17.20;99.90;;;;;;5081299;28;20284;-82
2022/07/06 05:10:47;;;;;;;10.90;10.60;;;17.10;99.90;;;;;;5081440;28;20321;-81
2022/07/06 05:13:14;;;;;;;10.63;10.32;;;17.20;99.90;;;;;;5080458;28;20353;-82
2022/07/06 05:15:41;;;;;;;10.63;10.32;;;17.20;99.90;;;;;;5080857;28;20237;-81
2022/07/06 05:18:09;;;;;;;10.90;10.60;;;17.20;99.90;;;;;;5080468;28;20324;-81
2022/07/06 05:20:38;;;;;;;10.98;10.68;;;17.20;99.90;;;;;;5081491;28;20260;-81
2022/07/06 05:23:05;;;;;;;11.00;10.70;;;17.30;99.90;;;;;;5078596;28;20266;-80
2022/07/06 05:25:33;;;;;;;11.13;10.82;;;17.20;99.90;;;;;;5077983;28;20258;-80
2022/07/06 05:28:00;;;;;;;10.88;10.57;;;17.20;99.90;;;;;;5078096;28;20317;-80
2022/07/06 05:30:28;;;;;;;10.90;10.60;;;17.10;99.90;;;;;;5088856;28;20234;-79
2022/07/06 05:32:56;;;;;;;10.77;10.48;;;17.10;99.90;;;;;;5078548;28;20250;-80
2022/07/06 05:35:23;;;;;;;10.80;10.50;;;17.10;99.90;;;;;;5077670;28;20317;-80
2022/07/06 05:37:52;;;;;;;10.77;10.48;;;17.10;99.90;;;;;;5077956;28;20254;-79
2022/07/06 05:40:20;;;;;;;10.60;10.30;;;17.20;99.90;;;;;;5079003;28;20244;-80
2022/07/06 05:42:47;;;;;;;11.18;10.88;;;17.20;99.90;;;;;;5077948;28;20324;-82
2022/07/06 05:45:15;;;;;;;10.80;10.50;;;17.20;99.90;;;;;;5078289;28;20230;-78
2022/07/06 05:50:27;;;;;;;10.80;10.50;;;17.60;99.90;;;;;;5078031;28;20226;-79
2022/07/06 05:53:01;;;;;;;10.90;10.60;;;17.80;99.90;;;;;;5077637;28;20298;-79
2022/07/06 05:55:29;;;;;;;10.70;10.40;;;17.90;99.90;;;;;;5077731;28;20229;-79
2022/07/06 05:57:57;;;;;;;10.80;10.50;;;18.00;99.90;;;;;;5076898;28;20250;-80
2022/07/06 06:00:27;;;;;;;10.45;10.15;;;18.00;99.90;;;;;;5083588;28;20780;-79
2022/07/06 06:02:54;;;;;;;10.43;10.13;;;18.00;99.90;;;;;;5082315;28;20321;-79
2022/07/06 06:05:22;;;;;;;10.63;10.32;;;18.00;99.90;;;;;;5078579;28;20233;-79
2022/07/06 06:07:51;;;;;;;10.70;10.40;;;18.10;99.90;;;;;;5079334;28;20278;-79
2022/07/06 06:10:21;;;;;;;10.90;10.60;;;18.20;99.90;;;;;;5077951;28;20245;-80
2022/07/06 06:12:49;;;;;;;11.25;10.93;;;18.20;99.90;;;;;;5077603;28;20962;-80
2022/07/06 06:15:16;;;;;;;10.95;10.65;;;18.20;99.90;;;;;;5077136;28;20222;-79
2022/07/06 06:17:44;;;;;;;11.02;10.73;;;18.30;99.90;;;;;;5077249;28;20265;-79
2022/07/06 06:20:14;;;;;;;11.32;11.02;;;18.30;99.90;;;;;;5078129;28;20234;-79
2022/07/06 06:22:49;;;;;;;11.05;10.75;;;18.30;99.90;;;;;;5076859;28;20328;-79
2022/07/06 06:25:19;;;;;;;10.85;10.55;;;18.40;99.90;;;;;;5077109;28;20226;-79
2022/07/06 06:27:47;;;;;;;11.00;10.70;;;18.40;99.90;;;;;;5077656;28;20233;-79
2022/07/06 06:30:15;;;;;;;11.15;10.85;;;18.50;99.90;;;;;;5077741;28;20240;-80
2022/07/06 06:32:43;;;;;;;11.20;10.90;;;18.70;99.90;;;;;;5076589;28;20234;-79
2022/07/06 06:35:11;;;;;;;10.85;10.55;;;18.90;99.90;;;;;;5077207;28;20234;-79
2022/07/06 06:37:38;;;;;;;11.20;10.90;;;18.90;99.90;;;;;;5077851;28;20240;-79
2022/07/06 06:40:08;;;;;;;11.20;10.90;;;19.00;99.90;;;;;;5077714;28;20261;-78
2022/07/06 06:42:38;;;;;;;10.95;10.65;;;19.10;99.90;;;;;;5076367;28;20234;-79
2022/07/06 06:45:07;;;;;;;11.02;10.73;;;19.20;99.90;;;;;;5077300;28;20223;-79
2022/07/06 06:47:35;;;;;;;11.38;11.05;;;19.20;99.90;;;;;;5076569;28;20284;-79
2022/07/06 06:50:02;;;;;;;11.55;11.15;;;19.20;99.90;;;;;;5077314;28;20222;-79
2022/07/06 06:52:30;;;;;;;11.98;11.57;;;19.30;99.90;;;;;;5076923;28;20245;-79
2022/07/06 06:54:57;;;;;;;11.95;11.55;;;19.30;99.90;;;;;;5076478;28;20238;-79
2022/07/06 06:57:25;;;;;;;12.10;11.70;;;19.40;99.90;;;;;;5077382;28;20297;-79
2022/07/06 06:59:53;;;;;;;11.90;11.50;;;19.50;99.90;;;;;;5077499;28;20230;-80
2022/07/06 07:02:21;;;;;;;11.60;11.20;;;19.60;99.90;;;;;;5079765;28;20301;-79
2022/07/06 07:04:48;;;;;;;11.80;11.40;;;19.60;99.90;;;;;;5078644;28;20317;-79
2022/07/06 07:07:16;;;;;;;11.15;10.85;;;19.80;99.90;;;;;;5079363;28;20226;-79
2022/07/06 07:09:43;;;;;;;11.20;10.90;;;19.70;99.90;;;;;;5078693;28;20234;-79
2022/07/06 07:12:11;;;;;;;11.57;11.18;;;19.80;99.90;;;;;;5078439;28;20297;-79
2022/07/06 07:14:39;;;;;;;11.55;11.15;;;19.90;99.90;;;;;;5078604;28;20234;-79
2022/07/06 07:17:08;;;;;;;11.32;11.02;;;19.90;99.90;;;;;;5080591;28;20262;-81
2022/07/06 07:19:36;;;;;;;11.20;10.90;;;19.90;99.90;;;;;;5083111;28;20261;-79
2022/07/06 07:22:07;;;;;;;11.00;10.70;;;19.90;99.90;;;;;;5083464;28;20261;-79
2022/07/06 07:24:34;;;;;;;11.30;11.00;;;20.00;99.90;;;;;;5084095;28;20260;-80
2022/07/06 07:27:02;;;;;;;11.52;11.13;;;20.20;99.90;;;;;;5084854;28;20313;-79
2022/07/06 07:29:29;;;;;;;11.70;11.30;;;20.20;99.90;;;;;;5083708;28;20265;-79
2022/07/06 07:31:57;;;;;;;11.60;11.20;;;20.40;99.90;;;;;;5084832;28;20265;-79
2022/07/06 07:34:26;;;;;;;11.32;11.00;;;20.40;99.90;;;;;;5084588;28;20305;-78
2022/07/06 07:36:53;;;;;;;11.68;11.27;;;20.60;99.90;;;;;;5084841;28;20233;-79
2022/07/06 07:39:21;;;;;;;11.82;11.43;;;20.50;99.90;;;;;;5084468;28;20253;-78
2022/07/06 07:41:50;;;;;;;11.75;11.35;;;20.60;99.90;;;;;;5083921;28;20273;-79
2022/07/06 07:44:17;;;;;;;11.90;11.50;;;20.60;99.90;;;;;;5080309;28;20229;-78
2022/07/06 07:46:45;;;;;;;11.88;11.48;;;20.60;99.90;;;;;;5084672;28;20273;-78
2022/07/06 07:49:12;;;;;;;11.60;11.20;;;20.70;99.90;;;;;;5084011;28;20234;-79
2022/07/06 07:51:42;;;;;;;11.10;10.80;;;20.80;99.90;;;;;;5080478;28;20264;-79
2022/07/06 07:54:10;;;;;;;11.00;10.70;;;20.90;99.90;;;;;;5075554;28;20234;-79
2022/07/06 07:56:44;;;;;;;11.10;10.80;;;20.90;99.90;;;;;;5075951;28;20313;-79
2022/07/06 07:59:11;;;;;;;11.60;11.20;;;20.90;99.90;;;;;;5084330;28;20236;-80
2022/07/06 08:01:39;;;;;;;11.35;11.02;;;21.10;99.90;;;;;;5080601;28;20294;-81
2022/07/06 08:04:07;;;;;;;11.77;11.38;;;21.20;99.90;;;;;;5078286;28;20241;-81
2022/07/06 08:06:34;;;;;;;11.27;10.98;;;21.30;99.90;;;;;;5078580;28;20230;-81
2022/07/06 08:09:04;;;;;;;11.20;10.90;;;21.40;99.90;;;;;;5078344;28;20269;-81
2022/07/06 08:11:32;;;;;;;11.38;11.05;;;21.60;99.90;;;;;;5078058;28;20269;-80
2022/07/06 08:14:00;;;;;;;11.70;11.30;;;21.70;99.90;;;;;;5078049;28;20329;-81
2022/07/06 08:16:27;;;;;;;11.90;11.50;;;21.90;99.90;;;;;;5078904;28;20241;-81
2022/07/06 08:18:55;;;;;;;11.68;11.27;;;21.80;99.90;;;;;;5079418;28;20236;-81
2022/07/06 08:21:22;;;;;;;11.80;11.40;;;21.80;99.90;;;;;;5079559;28;20245;-80
2022/07/06 08:23:50;;;;;;;11.80;11.40;;;21.80;99.90;;;;;;5081593;28;20242;-80
2022/07/06 08:26:18;;;;;;;11.77;11.38;;;21.90;99.90;;;;;;5081816;28;20231;-81
2022/07/06 08:28:46;;;;;;;11.93;11.52;;;22.10;99.90;;;;;;5082174;28;20230;-81
2022/07/06 08:31:14;;;;;;;11.45;11.05;;;22.30;99.90;;;;;;5081198;28;20316;-81
2022/07/06 08:33:41;;;;;;;11.15;10.85;;;22.40;99.90;;;;;;5081867;28;20296;-81
2022/07/06 08:36:09;;;;;;;11.20;10.90;;;22.40;99.90;;;;;;5082121;28;20277;-81
2022/07/06 08:38:36;;;;;;;11.70;11.30;;;22.60;99.90;;;;;;5081902;28;20297;-81
2022/07/06 08:41:07;;;;;;;11.30;11.00;;;22.60;99.90;;;;;;5081973;28;20281;-81
2022/07/06 08:43:37;;;;;;;11.70;11.30;;;22.60;99.90;;;;;;5081369;28;20298;-81
2022/07/06 08:46:05;;;;;;;11.68;11.27;;;22.70;99.90;;;;;;5081579;28;20226;-81
2022/07/06 08:48:38;;;;;;;11.70;11.30;;;22.90;99.90;;;;;;5081533;28;20238;-81
2022/07/06 08:51:07;;;;;;;11.73;11.32;;;22.80;99.90;;;;;;5081556;28;20230;-81
2022/07/06 08:53:35;;;;;;;12.27;11.88;;;22.80;99.90;;;;;;5081689;28;20285;-81
2022/07/06 08:56:03;;;;;;;11.73;11.32;;;23.00;99.90;;;;;;5081217;28;20230;-80
2022/07/06 08:58:33;;;;;;;11.98;11.57;;;23.30;99.90;;;;;;5091224;28;20257;-80
2022/07/06 09:01:02;;;;;;;11.68;11.27;;;23.40;99.90;;;;;;5086649;28;20290;-80
2022/07/06 09:03:30;;;;;;;11.65;11.25;;;23.40;99.90;;;;;;5082915;28;20285;-80
2022/07/06 09:06:01;;;;;;;11.70;11.30;;;23.60;99.90;;;;;;5080200;28;20317;-81
2022/07/06 09:08:29;;;;;;;12.00;11.60;;;23.60;99.90;;;;;;5081066;28;20261;-81
2022/07/06 09:10:57;;;;;;;11.90;11.50;;;23.60;99.90;;;;;;5079056;28;20313;-81
2022/07/06 09:13:24;;;;;;;11.68;11.27;;;23.50;99.90;;;;;;5078945;28;20317;-81
2022/07/06 09:15:52;;;;;;;11.95;11.55;;;23.80;99.90;;;;;;5078525;28;20237;-81
2022/07/06 09:18:22;;;;;;;11.90;11.50;;;24.10;99.90;;;;;;5079321;28;20234;-81
2022/07/06 09:20:50;;;;;;;11.65;11.25;;;24.30;99.90;;;;;;5078965;28;20284;-81
2022/07/06 09:23:18;;;;;;;11.93;11.52;;;24.60;99.90;;;;;;5077960;28;20294;-81
2022/07/06 09:25:50;;;;;;;11.75;11.35;;;24.50;99.90;;;;;;5078534;28;20313;-81
2022/07/06 09:28:18;;;;;;;11.80;11.40;;;24.70;99.90;;;;;;5079233;28;20234;-81
2022/07/06 09:30:45;;;;;;;11.27;10.98;;;24.90;99.90;;;;;;5078765;28;20294;-81
2022/07/06 09:33:18;;;;;;;11.20;10.90;;;24.70;99.90;;;;;;5078283;28;20297;-81
2022/07/06 09:35:48;;;;;;;11.60;11.20;;;24.50;99.90;;;;;;5078429;28;20230;-81
2022/07/06 09:38:17;;;;;;;11.63;11.23;;;24.60;99.90;;;;;;5079969;28;20234;-81
2022/07/06 09:40:48;;;;;;;12.00;11.60;;;24.40;99.90;;;;;;5087991;28;20226;-81
2022/07/06 09:43:18;;;;;;;12.00;11.60;;;24.40;99.90;;;;;;5081634;28;20323;-81
2022/07/06 09:45:50;;;;;;;11.30;11.00;;;24.20;99.90;;;;;;5080471;28;20222;-81
2022/07/06 09:48:21;;;;;;;11.63;11.23;;;24.30;99.90;;;;;;5082189;28;20246;-80
2022/07/06 09:50:52;;;;;;;11.77;11.38;;;24.20;99.90;;;;;;5080641;28;20262;-81
2022/07/06 09:53:21;;;;;;;11.70;11.30;;;24.50;99.90;;;;;;5095011;28;20228;-81
2022/07/06 09:55:51;;;;;;;11.38;11.02;;;24.50;99.90;;;;;;5096883;28;20282;-81
2022/07/06 09:58:19;;;;;;;11.50;11.15;;;25.00;99.90;;;;;;5085301;28;20301;-81
2022/07/06 10:00:48;;;;;;;11.18;10.88;;;25.20;99.90;;;;;;5079592;28;20230;-81
2022/07/06 10:03:17;;;;;;;10.93;10.63;;;25.10;99.90;;;;;;5080052;28;20269;-81
2022/07/06 10:05:49;;;;;;;11.10;10.80;;;25.00;99.90;;;;;;5079222;28;20219;-81
2022/07/06 10:08:18;;;;;;;11.70;11.30;;;24.30;99.90;;;;;;5079103;28;20229;-81
2022/07/06 10:10:47;;;;;;;12.30;11.90;;;23.80;99.90;;;;;;5079507;28;20226;-81
2022/07/06 10:13:21;;;;;;;11.70;11.30;;;24.00;99.90;;;;;;5079609;28;20317;-81
2022/07/06 10:15:49;;;;;;;11.73;11.32;;;24.20;99.90;;;;;;5079246;28;20317;-80
2022/07/06 10:18:17;;;;;;;11.65;11.25;;;24.30;99.90;;;;;;5079618;28;20230;-81
2022/07/06 10:20:44;;;;;;;12.02;11.63;;;24.80;99.90;;;;;;5080276;28;20269;-81
2022/07/06 10:23:15;;;;;;;11.55;11.20;;;25.30;99.90;;;;;;5079465;28;20249;-81
2022/07/06 10:25:43;;;;;;;11.70;11.30;;;25.80;99.90;;;;;;5081466;28;20249;-81
2022/07/06 10:28:14;;;;;;;11.95;11.55;;;26.00;99.90;;;;;;5080843;28;20234;-81
2022/07/06 10:30:43;;;;;;;11.20;10.90;;;26.20;99.90;;;;;;5080585;28;20237;-81
2022/07/06 10:33:14;;;;;;;11.30;10.90;;;25.50;99.90;;;;;;5080697;28;20242;-80
2022/07/06 10:35:42;;;;;;;11.10;10.80;;;25.00;99.90;;;;;;5080841;28;20241;-80
2022/07/06 10:38:12;;;;;;;11.05;10.75;;;24.60;99.90;;;;;;5080217;28;20343;-81
2022/07/06 10:43:34;;;;;;;11.55;11.18;;;23.70;99.90;;;;;;5080513;28;20218;-80
2022/07/06 10:46:08;;;;;;;11.70;11.30;;;24.10;99.90;;;;;;5080868;28;20221;-81
2022/07/06 10:48:40;;;;;;;11.40;11.10;;;24.60;99.90;;;;;;5079819;28;20288;-81
2022/07/06 10:51:08;;;;;;;11.57;11.20;;;25.30;99.90;;;;;;5079422;28;20229;-81
2022/07/06 10:53:39;;;;;;;11.00;10.70;;;25.30;99.90;;;;;;5078457;28;20230;-81
2022/07/06 10:56:08;;;;;;;11.55;11.18;;;24.80;99.90;;;;;;5078260;28;20240;-81
2022/07/06 10:58:42;;;;;;;10.95;10.65;;;24.50;99.90;;;;;;5080120;28;20234;-80
2022/07/06 11:01:10;;;;;;;10.77;10.48;;;24.50;99.90;;;;;;5079089;28;20264;-81
2022/07/06 11:03:41;;;;;;;11.15;10.85;;;24.40;99.90;;;;;;5078261;28;20241;-81
2022/07/06 11:06:20;;;;;;;10.93;10.63;;;24.30;99.90;;;;;;5078671;28;20321;-81
2022/07/06 11:08:57;;;;;;;10.88;10.57;;;24.30;99.90;;;;;;5078743;28;20234;-81
2022/07/06 11:11:27;;;;;;;10.98;10.68;;;24.50;99.90;;;;;;5078914;28;20234;-81
2022/07/06 11:14:01;;;;;;;11.10;10.80;;;24.50;99.90;;;;;;5080028;28;20321;-81
2022/07/06 11:16:33;;;;;;;11.45;11.05;;;24.30;99.90;;;;;;5080324;28;20261;-81
2022/07/06 11:19:09;;;;;;;11.48;11.07;;;24.50;99.90;;;;;;5082064;28;20240;-81
2022/07/06 11:21:46;;;;;;;11.25;10.88;;;25.00;99.90;;;;;;5100989;22;20248;-84
2022/07/06 11:24:17;;;;;;;11.30;11.00;;;25.70;99.90;;;;;;5080453;28;20314;-85
2022/07/06 11:26:49;;;;;;;11.30;11.00;;;26.20;99.90;;;;;;5081224;28;20256;-84
2022/07/06 11:29:20;;;;;;;10.98;10.68;;;25.80;99.90;;;;;;5081114;28;20234;-84
2022/07/06 11:31:54;;;;;;;11.70;11.30;;;25.30;99.90;;;;;;5080561;28;20268;-84
2022/07/06 11:34:24;;;;;;;11.07;10.77;;;25.60;99.90;;;;;;5082477;28;20226;-84
2022/07/06 11:36:57;;;;;;;11.70;11.30;;;25.80;99.90;;;;;;5082468;28;20234;-84
2022/07/06 11:39:30;;;;;;;11.00;10.70;;;26.00;99.90;;;;;;5081417;28;20233;-84
2022/07/06 11:42:00;;;;;;;11.00;10.70;;;26.00;99.90;;;;;;5080340;28;20308;-84
2022/07/06 11:44:28;;;;;;;11.60;11.20;;;25.90;99.90;;;;;;5079512;28;20269;-84
2022/07/06 11:47:00;;;;;;;11.60;11.20;;;25.90;99.90;;;;;;5079811;28;20215;-84
2022/07/06 11:49:30;;;;;;;11.02;10.73;;;25.90;99.90;;;;;;5080069;28;20230;-84
2022/07/06 11:51:57;;;;;;;10.57;10.27;;;26.10;99.90;;;;;;5079958;28;21087;-84
2022/07/06 11:54:29;;;;;;;10.57;10.27;;;26.20;99.90;;;;;;5078974;28;20280;-84
2022/07/06 11:56:59;;;;;;;10.70;10.40;;;26.50;99.90;;;;;;5086639;28;20225;-82
2022/07/06 11:59:30;;;;;;;10.57;10.27;;;27.00;99.90;;;;;;5089110;28;20264;-83
2022/07/06 12:02:01;;;;;;;11.10;10.80;;;26.90;99.90;;;;;;5080107;28;20291;-84
2022/07/06 12:04:30;;;;;;;11.23;10.93;;;26.60;99.90;;;;;;5083742;28;20334;-84
2022/07/06 12:07:01;;;;;;;11.30;11.00;;;26.00;99.90;;;;;;5087349;28;20226;-83
2022/07/06 12:09:33;;;;;;;11.65;11.30;;;25.30;99.90;;;;;;5087052;28;20222;-84
2022/07/06 12:12:02;;;;;;;11.23;10.93;;;24.80;99.90;;;;;;5085417;28;20244;-84
2022/07/06 12:14:31;;;;;;;11.60;11.30;;;24.70;99.90;;;;;;5080336;28;20320;-84
2022/07/06 12:17:04;;;;;;;11.25;10.95;;;25.10;99.90;;;;;;5081841;28;20230;-84
2022/07/06 12:19:32;;;;;;;11.30;11.00;;;25.80;99.90;;;;;;5081918;28;20264;-84
2022/07/06 12:22:01;;;;;;;12.00;11.60;;;26.30;99.90;;;;;;5081394;28;20269;-84
2022/07/06 12:24:34;;;;;;;11.98;11.57;;;26.60;99.90;;;;;;5081967;28;20243;-84
2022/07/06 12:27:15;;;;;;;12.20;11.80;;;26.80;99.90;;;;;;5082360;28;20245;-84
2022/07/06 12:29:48;;;;;;;12.30;11.90;;;27.50;99.90;;;;;;5082535;28;20222;-84
2022/07/06 12:32:23;;;;;;;12.50;12.10;;;27.80;99.90;;;;;;5082200;28;20234;-85
2022/07/06 12:35:05;;;;;;;11.50;11.20;;;28.20;99.90;;;;;;5083242;28;20222;-84
2022/07/06 12:37:33;;;;;;;11.90;11.50;;;28.20;99.90;;;;;;5083351;28;20249;-85
2022/07/06 12:40:14;;;;;;;11.57;11.27;;;27.70;99.90;;;;;;5084278;28;20280;-84
2022/07/06 12:42:56;;;;;;;11.07;10.77;;;27.70;99.90;;;;;;5085289;28;20289;-84
2022/07/06 12:45:29;;;;;;;11.07;10.77;;;27.90;99.90;;;;;;5085010;28;20268;-84